Detall de PIREP

Printer-friendly versionPDF version

[2017/03/12 08:28:00]
Flight IATA:CT3103
Pilot Number:012
Company ICAO:CAT
Aircraft Type:DC3/A
PAX:0
Aircraft Registration:CARGO
Departing Airport: LEPA
Destination Airport: LIEA
Alternate Airport:LIEO
Online: VATSIM
Route:MORSS M603 ELSAG
Flight Level:F100
No Slew and time accel
No pause
Crash detect
Detect pilot in Cockpit between each 30 and 45 minutes
08:28 Zero fuel Weight: 20226 Lbs, Fuel Weight: 3018 Lbs
08:28 VATSIM:LEPA 120800Z 00000KT 9999 FEW018 SCT068 12/08 Q1015 NOSIG
08:28 VATSIM:LIEA 120750Z 21007KT 9999 SCT015 13/11 Q1016
08:32 Parking Brakes off
08:36 Take-off
08:36 Take off Weight: 23213 Lbs
08:36 Wind: 000º @ 000 Knots Heading: 238º
08:36 POS N39º 33´ 25´´ E002º 43´ 55´´
08:36 Gear Up: 106 Knots
08:48 TOC
08:48 Fuel Weight: 2823 Lb
08:48 TOD
08:48 Fuel Weight: 2823 Lb
08:48 TOC
08:48 Fuel Weight: 2823 Lb
08:51 Wind:286º@010 Knots Heading: 079º Ground Speed: 172 Knots Altitude 10068 ft
09:06 Wind:293º@010 Knots Heading: 056º Ground Speed: 169 Knots Altitude 10072 ft
09:21 Wind:293º@010 Knots Heading: 070º Ground Speed: 171 Knots Altitude 10075 ft
09:36 Wind:293º@010 Knots Heading: 071º Ground Speed: 171 Knots Altitude 10078 ft
09:51 Wind:291º@013 Knots Heading: 071º Ground Speed: 175 Knots Altitude 10082 ft
10:06 Wind:291º@015 Knots Heading: 080º Ground Speed: 178 Knots Altitude 10082 ft
10:12 TOD
10:12 Fuel Weight: 1892 Lb
10:12 TOC
10:12 Fuel Weight: 1891 Lb
10:12 TOD
10:12 Fuel Weight: 1891 Lb
10:18 Gear Down: 163 Knots
10:20 Flaps:1 at 122 Knots
10:21 Wind:240º@009 Knots Heading: 012º Ground Speed: 115 Knots Altitude 2208 ft
10:21 Flaps:2 at 104 Knots
10:21 Flaps:3 at 96 Knots
10:23 Flaps:4 at 95 Knots
10:24 TouchDown:Rate -24 ft/min Speed: 61 Knots
10:24 VATSIM:LIEA 120950Z 20010KT 9999 SCT020 14/09 Q1016
10:24 Land
10:24 Wind:188º@010 Knots
10:24 Heading: 035º
10:24 Flight Duration: 01:48
10:24 Landing Weight: 22022 Lbs
10:24 POS N40º 37´ 43´´ E008º 17´ 19´´
10:27 Parking brakes on
10:27 Block to Block Duration: 01:55
10:27 Final Fuel: 1785 Lbls
10:27 Spent Fuel: 1232 Lbls
10:27 Flight Length: 294 NM
10:27 TOD Land Length: 29 NM

Exportar CSV

Powered by Drupal - Modified by Danger4k